createdAt,value
2019-02-23T00:03:08.347Z,4.60
2019-02-23T00:07:59.257Z,4.47
2019-02-23T00:12:50.170Z,4.30
2019-02-23T00:17:41.092Z,3.90
2019-02-23T00:22:32.006Z,4.00
2019-02-23T00:27:22.922Z,4.03
2019-02-23T00:32:13.840Z,4.27
2019-02-23T00:37:04.767Z,4.30
2019-02-23T00:41:55.681Z,5.43
2019-02-23T00:46:46.594Z,4.80
2019-02-23T00:51:37.506Z,5.70
2019-02-23T00:56:28.482Z,4.37
2019-02-23T01:01:19.397Z,5.00
2019-02-23T01:06:10.310Z,4.80
2019-02-23T01:11:01.190Z,4.73
2019-02-23T01:15:52.132Z,4.80
2019-02-23T01:20:43.023Z,4.83
2019-02-23T01:25:33.926Z,4.73
2019-02-23T01:30:25.576Z,4.83
2019-02-23T01:35:16.544Z,4.57
2019-02-23T01:40:07.446Z,5.65
2019-02-23T01:44:58.343Z,4.17
2019-02-23T01:49:58.533Z,6.40
2019-02-23T01:54:40.267Z,5.17
2019-02-23T01:59:31.167Z,4.90
2019-02-23T02:04:22.924Z,4.27
2019-02-23T02:09:13.865Z,4.90
2019-02-23T02:14:04.794Z,5.20
2019-02-23T02:18:55.711Z,5.03
2019-02-23T02:23:46.625Z,4.90
2019-02-23T02:28:37.544Z,5.57
2019-02-23T02:33:28.460Z,5.40
2019-02-23T02:38:19.365Z,5.50
2019-02-23T02:43:10.281Z,7.07
2019-02-23T02:48:01.192Z,6.75
2019-02-23T02:52:52.096Z,5.70
2019-02-23T02:57:43.739Z,5.80
2019-02-23T03:02:35.380Z,5.33
2019-02-23T03:07:26.283Z,6.60
2019-02-23T03:12:17.924Z,5.37
2019-02-23T03:17:09.564Z,5.93
2019-02-23T03:22:01.217Z,5.60
2019-02-23T03:26:52.127Z,5.30
2019-02-23T03:31:43.029Z,6.33
2019-02-23T03:36:34.681Z,5.90
2019-02-23T03:41:25.596Z,8.20
2019-02-23T03:46:16.494Z,7.30
2019-02-23T03:51:08.178Z,7.17
2019-02-23T03:55:59.088Z,6.77
2019-02-23T04:00:50.236Z,7.60
2019-02-23T04:05:41.150Z,6.60
2019-02-23T04:10:32.048Z,5.97
2019-02-23T04:15:22.956Z,6.67
2019-02-23T04:20:13.856Z,6.90
2019-02-23T04:25:05.489Z,6.77
2019-02-23T04:29:57.212Z,6.93
2019-02-23T04:34:48.066Z,6.93
2019-02-23T04:39:38.976Z,6.97
2019-02-23T04:44:29.881Z,8.88
2019-02-23T04:49:21.531Z,7.53
2019-02-23T04:54:12.457Z,6.77
2019-02-23T04:59:03.358Z,6.43
2019-02-23T05:03:55.009Z,7.83
2019-02-23T05:08:46.087Z,7.87
2019-02-23T05:13:36.988Z,7.47
2019-02-23T05:18:27.882Z,7.90
2019-02-23T05:23:18.780Z,6.80
2019-02-23T05:28:10.414Z,7.60
2019-02-23T05:33:02.061Z,6.00
2019-02-23T05:37:52.972Z,7.67
2019-02-23T05:42:43.879Z,7.17
2019-02-23T05:47:35.533Z,6.93
2019-02-23T05:52:26.440Z,9.20
2019-02-23T05:57:18.118Z,8.70
2019-02-23T06:02:09.021Z,8.33
2019-02-23T06:06:59.926Z,7.77
2019-02-23T06:11:50.861Z,7.17
2019-02-23T06:16:41.764Z,8.17
2019-02-23T06:21:32.664Z,7.10
2019-02-23T06:26:24.299Z,7.47
2019-02-23T06:31:15.942Z,8.50
2019-02-23T06:36:07.577Z,7.80
2019-02-23T06:40:59.228Z,8.43
2019-02-23T06:45:50.144Z,8.70
2019-02-23T06:50:41.053Z,9.30
2019-02-23T06:55:31.964Z,9.60
2019-02-23T07:00:23.617Z,9.80
2019-02-23T07:05:14.515Z,8.77
2019-02-23T07:10:07.115Z,8.00
2019-02-23T07:14:58.019Z,8.23
2019-02-23T07:19:48.977Z,9.60
2019-02-23T07:24:39.882Z,8.50
2019-02-23T07:29:30.788Z,8.17
2019-02-23T07:34:21.700Z,9.10
2019-02-23T07:39:12.805Z,8.50
2019-02-23T07:44:03.716Z,8.80
2019-02-23T07:48:54.603Z,7.67
2019-02-23T07:53:46.264Z,9.50
2019-02-23T07:58:37.890Z,10.63
2019-02-23T08:03:28.852Z,9.30
2019-02-23T08:08:19.832Z,8.67
2019-02-23T08:13:10.778Z,8.80
2019-02-23T08:18:01.694Z,8.40
2019-02-23T08:22:52.601Z,8.80
2019-02-23T08:27:43.499Z,9.90
2019-02-23T08:32:34.474Z,8.30
2019-02-23T08:37:25.438Z,8.07
2019-02-23T08:42:16.353Z,8.43
2019-02-23T08:47:07.255Z,8.73
2019-02-23T08:51:59.006Z,8.95
2019-02-23T08:56:50.731Z,8.37
2019-02-23T09:01:42.380Z,10.40
2019-02-23T09:06:33.293Z,8.00
2019-02-23T09:11:24.939Z,7.63
2019-02-23T09:16:15.847Z,8.27
2019-02-23T09:21:07.498Z,8.00
2019-02-23T09:25:58.413Z,7.93
2019-02-23T09:30:49.331Z,8.80
2019-02-23T09:35:40.240Z,8.00
2019-02-23T09:40:31.915Z,7.37
2019-02-23T09:45:22.836Z,7.53
2019-02-23T09:50:13.747Z,7.30
2019-02-23T09:55:04.659Z,7.93
2019-02-23T09:59:55.710Z,9.37
2019-02-23T10:04:46.610Z,8.30
2019-02-23T10:09:37.517Z,7.90
2019-02-23T10:14:28.410Z,7.37
2019-02-23T10:19:20.070Z,8.00
2019-02-23T10:24:10.987Z,7.60
2019-02-23T10:29:01.891Z,7.20
2019-02-23T10:33:53.540Z,6.70
2019-02-23T10:38:44.601Z,7.40
2019-02-23T10:43:35.527Z,6.63
2019-02-23T10:48:26.451Z,7.97
2019-02-23T10:53:17.495Z,8.32
2019-02-23T10:58:09.255Z,7.97
2019-02-23T11:03:00.165Z,6.80
2019-02-23T11:07:51.084Z,7.03
2019-02-23T11:12:42.748Z,7.43
2019-02-23T11:17:33.651Z,7.13
2019-02-23T11:22:24.601Z,8.17
2019-02-23T11:27:15.641Z,6.43
2019-02-23T11:32:06.549Z,8.03
2019-02-23T11:36:57.594Z,7.80
2019-02-23T11:41:48.506Z,7.60
2019-02-23T11:46:39.523Z,9.60
2019-02-23T11:51:30.445Z,8.50
2019-02-23T11:56:21.357Z,8.37
2019-02-23T12:01:12.273Z,7.83
2019-02-23T12:06:03.200Z,7.60
2019-02-23T12:10:54.120Z,7.33
2019-02-23T12:15:45.018Z,7.40
2019-02-23T12:20:35.945Z,8.27
2019-02-23T12:25:26.859Z,8.63
2019-02-23T12:30:17.770Z,8.50
2019-02-23T12:35:08.663Z,7.27
2019-02-23T12:39:59.570Z,6.47
2019-02-23T12:44:50.502Z,8.03
2019-02-23T12:49:41.408Z,6.80
2019-02-23T12:54:32.314Z,8.30
2019-02-23T12:59:23.371Z,7.50
2019-02-23T13:04:14.971Z,7.40
2019-02-23T13:09:15.923Z,6.73
2019-02-23T13:19:40.710Z,7.70
2019-02-23T13:24:43.591Z,7.10
2019-02-23T13:29:40.883Z,6.77
2019-02-23T13:34:43.527Z,7.35
2019-02-23T13:45:03.060Z,7.17
2019-02-23T13:49:55.948Z,7.10
2019-02-23T13:54:50.724Z,6.30
2019-02-23T13:59:48.924Z,6.10
2019-02-23T14:04:45.826Z,6.93
2019-02-23T14:09:43.700Z,7.90
2019-02-23T14:14:37.707Z,7.85
2019-02-23T14:19:33.417Z,7.40
2019-02-23T14:24:49.759Z,7.20
2019-02-23T14:29:39.158Z,7.30
2019-02-23T14:34:37.750Z,8.07
2019-02-23T14:39:45.626Z,7.20
2019-02-23T14:44:42.578Z,7.73
2019-02-23T14:55:05.367Z,7.70
2019-02-23T15:05:44.136Z,7.10
2019-02-23T15:10:44.246Z,8.07
2019-02-23T15:15:41.813Z,7.53
2019-02-23T15:20:37.329Z,7.00
2019-02-23T15:25:36.128Z,7.63
2019-02-23T15:30:29.717Z,6.93
2019-02-23T15:35:20.814Z,7.17
2019-02-23T15:40:21.859Z,6.53
2019-02-23T15:45:15.628Z,6.70
2019-02-23T15:50:13.009Z,6.47
2019-02-23T15:54:57.532Z,7.67
2019-02-23T15:59:49.166Z,7.82
2019-02-23T16:04:40.832Z,6.90
2019-02-23T16:09:31.739Z,7.20
2019-02-23T16:14:22.719Z,6.67
2019-02-23T16:19:13.673Z,7.10
2019-02-23T16:24:04.638Z,8.10
2019-02-23T16:28:55.939Z,9.02
2019-02-23T16:33:46.480Z,7.80
2019-02-23T16:38:37.395Z,9.47
2019-02-23T16:43:28.299Z,7.87
2019-02-23T16:48:19.202Z,8.20
2019-02-23T16:53:10.116Z,7.37
2019-02-23T16:58:01.031Z,6.97
2019-02-23T17:02:52.039Z,6.93
2019-02-23T17:07:42.963Z,8.97
2019-02-23T17:12:33.868Z,8.67
2019-02-23T17:17:25.566Z,9.20
2019-02-23T17:22:16.472Z,8.53
2019-02-23T17:27:07.388Z,10.93
2019-02-23T17:31:58.338Z,8.90
2019-02-23T17:36:49.254Z,9.43
2019-02-23T17:41:40.168Z,8.73
2019-02-23T17:46:31.070Z,9.13
2019-02-23T17:51:22.013Z,10.10
2019-02-23T17:56:14.539Z,10.70
2019-02-23T18:01:04.594Z,9.70
2019-02-23T18:05:56.255Z,9.37
2019-02-23T18:10:47.976Z,9.83
2019-02-23T18:15:39.966Z,9.10
2019-02-23T18:20:29.851Z,9.60
2019-02-23T18:25:20.755Z,8.37
2019-02-23T18:30:14.101Z,9.20
2019-02-23T18:35:02.570Z,9.60
2019-02-23T18:39:53.481Z,11.18
2019-02-23T18:44:45.120Z,10.83
2019-02-23T18:49:36.759Z,10.87
2019-02-23T18:54:27.675Z,9.63
2019-02-23T18:59:18.582Z,9.17
2019-02-23T19:04:10.236Z,9.63
2019-02-23T19:09:01.144Z,9.23
2019-02-23T19:13:52.804Z,10.27
2019-02-23T19:18:43.706Z,10.90
2019-02-23T19:23:34.616Z,9.83
2019-02-23T19:28:26.287Z,10.87
2019-02-23T19:33:17.224Z,9.47
2019-02-23T19:38:08.170Z,11.83
2019-02-23T19:42:59.067Z,10.57
2019-02-23T19:47:49.980Z,10.50
2019-02-23T19:52:40.892Z,10.07
2019-02-23T19:57:31.810Z,10.00
2019-02-23T20:02:22.723Z,11.00
2019-02-23T20:07:13.636Z,12.30
2019-02-23T20:12:04.539Z,12.50
2019-02-23T20:16:55.455Z,11.57
2019-02-23T20:21:46.363Z,12.20
2019-02-23T20:26:37.314Z,11.47
2019-02-23T20:31:28.211Z,11.70
2019-02-23T20:36:19.136Z,10.57
2019-02-23T20:41:10.096Z,10.50
2019-02-23T20:46:01.016Z,11.57
2019-02-23T20:50:51.971Z,12.37
2019-02-23T20:55:43.635Z,13.07
2019-02-23T21:00:34.544Z,12.82
2019-02-23T21:05:25.451Z,12.17
2019-02-23T21:10:16.386Z,11.83
2019-02-23T21:15:07.295Z,11.77
2019-02-23T21:19:58.193Z,11.33
2019-02-23T21:24:49.846Z,10.47
2019-02-23T21:29:40.759Z,10.67
2019-02-23T21:34:38.762Z,10.80
2019-02-23T21:39:29.673Z,10.30
2019-02-23T21:44:20.584Z,10.27
2019-02-23T21:49:11.478Z,12.40
2019-02-23T21:54:09.942Z,11.27
2019-02-23T21:58:54.063Z,10.67
2019-02-23T22:03:44.971Z,10.40
2019-02-23T22:08:35.935Z,10.17
2019-02-23T22:13:26.852Z,11.07
2019-02-23T22:18:17.763Z,10.37
2019-02-23T22:23:08.669Z,9.67
2019-02-23T22:27:59.585Z,11.70
2019-02-23T22:32:50.499Z,10.90
2019-02-23T22:37:41.408Z,9.73
2019-02-23T22:42:32.298Z,9.27
2019-02-23T22:47:23.930Z,11.03
2019-02-23T22:52:15.579Z,12.50
2019-02-23T22:57:07.243Z,11.90
2019-02-23T23:01:58.193Z,12.13
2019-02-23T23:06:49.125Z,12.20
2019-02-23T23:11:40.030Z,11.47
2019-02-23T23:16:30.932Z,12.03
2019-02-23T23:21:21.838Z,11.40
2019-02-23T23:26:12.752Z,11.80
2019-02-23T23:31:03.663Z,12.37
2019-02-23T23:35:54.567Z,12.43
2019-02-23T23:40:46.216Z,12.50
2019-02-23T23:45:37.128Z,11.33
2019-02-23T23:50:28.030Z,13.07
2019-02-23T23:55:19.678Z,12.53
